sensor_id;sensor_type;location;lat;lon;timestamp;P1;durP1;ratioP1;P2;durP2;ratioP2
45540;SDS011;31265;49.680;8.608;2022-09-12T00:00:04;4.03;;;2.40;;
45540;SDS011;31265;49.680;8.608;2022-09-12T00:02:37;6.60;;;2.55;;
45540;SDS011;31265;49.680;8.608;2022-09-12T00:05:06;2.88;;;1.33;;
45540;SDS011;31265;49.680;8.608;2022-09-12T00:07:35;3.45;;;1.60;;
45540;SDS011;31265;49.680;8.608;2022-09-12T00:10:03;4.10;;;1.88;;
45540;SDS011;31265;49.680;8.608;2022-09-12T00:12:32;4.73;;;1.80;;
45540;SDS011;31265;49.680;8.608;2022-09-12T00:15:00;5.85;;;1.65;;
45540;SDS011;31265;49.680;8.608;2022-09-12T00:17:28;2.90;;;1.50;;
45540;SDS011;31265;49.680;8.608;2022-09-12T00:19:57;4.32;;;2.28;;
45540;SDS011;31265;49.680;8.608;2022-09-12T00:22:26;3.50;;;1.48;;
45540;SDS011;31265;49.680;8.608;2022-09-12T00:24:54;8.05;;;2.40;;
45540;SDS011;31265;49.680;8.608;2022-09-12T00:27:22;3.58;;;1.52;;
45540;SDS011;31265;49.680;8.608;2022-09-12T00:29:50;3.58;;;1.73;;
45540;SDS011;31265;49.680;8.608;2022-09-12T00:32:18;5.45;;;2.40;;
45540;SDS011;31265;49.680;8.608;2022-09-12T00:34:46;4.32;;;2.58;;
45540;SDS011;31265;49.680;8.608;2022-09-12T00:37:15;3.53;;;1.50;;
45540;SDS011;31265;49.680;8.608;2022-09-12T00:39:47;4.57;;;1.67;;
45540;SDS011;31265;49.680;8.608;2022-09-12T00:42:17;4.25;;;1.88;;
45540;SDS011;31265;49.680;8.608;2022-09-12T00:44:48;3.47;;;1.90;;
45540;SDS011;31265;49.680;8.608;2022-09-12T00:47:20;3.50;;;1.90;;
45540;SDS011;31265;49.680;8.608;2022-09-12T00:49:51;3.90;;;1.92;;
45540;SDS011;31265;49.680;8.608;2022-09-12T00:52:25;3.90;;;2.08;;
45540;SDS011;31265;49.680;8.608;2022-09-12T00:54:59;5.07;;;2.65;;
45540;SDS011;31265;49.680;8.608;2022-09-12T00:57:33;5.85;;;2.08;;
45540;SDS011;31265;49.680;8.608;2022-09-12T01:00:06;3.33;;;1.98;;
45540;SDS011;31265;49.680;8.608;2022-09-12T01:02:40;4.22;;;1.90;;
45540;SDS011;31265;49.680;8.608;2022-09-12T01:05:08;2.97;;;1.67;;
45540;SDS011;31265;49.680;8.608;2022-09-12T01:07:37;3.20;;;1.63;;
45540;SDS011;31265;49.680;8.608;2022-09-12T01:10:08;4.95;;;1.88;;
45540;SDS011;31265;49.680;8.608;2022-09-12T01:12:37;3.40;;;1.60;;
45540;SDS011;31265;49.680;8.608;2022-09-12T01:15:08;4.22;;;2.22;;
45540;SDS011;31265;49.680;8.608;2022-09-12T01:17:39;4.85;;;1.98;;
45540;SDS011;31265;49.680;8.608;2022-09-12T01:20:28;3.05;;;1.45;;
45540;SDS011;31265;49.680;8.608;2022-09-12T01:25:53;4.33;;;1.40;;
45540;SDS011;31265;49.680;8.608;2022-09-12T01:28:35;3.08;;;1.67;;
45540;SDS011;31265;49.680;8.608;2022-09-12T01:31:24;3.65;;;1.63;;
45540;SDS011;31265;49.680;8.608;2022-09-12T01:34:04;6.40;;;2.45;;
45540;SDS011;31265;49.680;8.608;2022-09-12T01:36:42;4.05;;;2.25;;
45540;SDS011;31265;49.680;8.608;2022-09-12T01:39:25;3.75;;;1.90;;
45540;SDS011;31265;49.680;8.608;2022-09-12T01:42:03;2.60;;;1.30;;
45540;SDS011;31265;49.680;8.608;2022-09-12T01:44:44;3.83;;;1.70;;
45540;SDS011;31265;49.680;8.608;2022-09-12T01:47:19;5.80;;;1.83;;
45540;SDS011;31265;49.680;8.608;2022-09-12T01:49:51;2.42;;;1.40;;
45540;SDS011;31265;49.680;8.608;2022-09-12T01:52:27;4.07;;;1.88;;
45540;SDS011;31265;49.680;8.608;2022-09-12T01:55:00;5.53;;;2.00;;
45540;SDS011;31265;49.680;8.608;2022-09-12T01:57:37;3.80;;;1.90;;
45540;SDS011;31265;49.680;8.608;2022-09-12T02:00:10;5.65;;;2.17;;
45540;SDS011;31265;49.680;8.608;2022-09-12T02:02:42;3.10;;;1.45;;
45540;SDS011;31265;49.680;8.608;2022-09-12T02:05:16;3.40;;;1.92;;
45540;SDS011;31265;49.680;8.608;2022-09-12T02:07:50;3.55;;;1.98;;
45540;SDS011;31265;49.680;8.608;2022-09-12T02:10:20;4.70;;;2.08;;
45540;SDS011;31265;49.680;8.608;2022-09-12T02:12:57;5.13;;;2.35;;
45540;SDS011;31265;49.680;8.608;2022-09-12T02:15:31;4.70;;;2.30;;
45540;SDS011;31265;49.680;8.608;2022-09-12T02:18:04;4.60;;;2.00;;
45540;SDS011;31265;49.680;8.608;2022-09-12T02:20:33;3.10;;;1.40;;
45540;SDS011;31265;49.680;8.608;2022-09-12T02:23:21;3.38;;;1.63;;
45540;SDS011;31265;49.680;8.608;2022-09-12T02:25:54;3.08;;;1.48;;
45540;SDS011;31265;49.680;8.608;2022-09-12T02:28:28;3.67;;;2.22;;
45540;SDS011;31265;49.680;8.608;2022-09-12T02:31:00;2.65;;;1.58;;
45540;SDS011;31265;49.680;8.608;2022-09-12T02:33:37;5.22;;;2.05;;
45540;SDS011;31265;49.680;8.608;2022-09-12T02:36:11;3.85;;;1.65;;
45540;SDS011;31265;49.680;8.608;2022-09-12T02:38:48;3.05;;;1.80;;
45540;SDS011;31265;49.680;8.608;2022-09-12T02:41:18;2.72;;;1.35;;
45540;SDS011;31265;49.680;8.608;2022-09-12T02:43:47;2.88;;;1.58;;
45540;SDS011;31265;49.680;8.608;2022-09-12T02:48:48;4.38;;;2.03;;
45540;SDS011;31265;49.680;8.608;2022-09-12T02:51:16;3.78;;;1.88;;
45540;SDS011;31265;49.680;8.608;2022-09-12T02:53:49;3.03;;;1.80;;
45540;SDS011;31265;49.680;8.608;2022-09-12T02:56:19;3.42;;;1.77;;
45540;SDS011;31265;49.680;8.608;2022-09-12T02:58:52;4.07;;;1.98;;
45540;SDS011;31265;49.680;8.608;2022-09-12T03:01:28;2.95;;;1.60;;
45540;SDS011;31265;49.680;8.608;2022-09-12T03:04:13;3.97;;;2.15;;
45540;SDS011;31265;49.680;8.608;2022-09-12T03:06:54;4.05;;;2.03;;
45540;SDS011;31265;49.680;8.608;2022-09-12T03:09:33;2.72;;;1.45;;
45540;SDS011;31265;49.680;8.608;2022-09-12T03:12:10;4.35;;;2.08;;
45540;SDS011;31265;49.680;8.608;2022-09-12T03:17:41;4.72;;;2.55;;
45540;SDS011;31265;49.680;8.608;2022-09-12T03:22:51;3.40;;;1.65;;
45540;SDS011;31265;49.680;8.608;2022-09-12T03:25:22;3.25;;;1.98;;
45540;SDS011;31265;49.680;8.608;2022-09-12T03:27:57;3.72;;;2.08;;
45540;SDS011;31265;49.680;8.608;2022-09-12T03:30:35;3.42;;;1.85;;
45540;SDS011;31265;49.680;8.608;2022-09-12T03:33:05;3.25;;;1.40;;
45540;SDS011;31265;49.680;8.608;2022-09-12T03:35:34;3.83;;;1.98;;
45540;SDS011;31265;49.680;8.608;2022-09-12T03:38:02;3.97;;;2.00;;
45540;SDS011;31265;49.680;8.608;2022-09-12T03:40:30;2.95;;;1.50;;
45540;SDS011;31265;49.680;8.608;2022-09-12T03:42:58;5.60;;;2.03;;
45540;SDS011;31265;49.680;8.608;2022-09-12T03:45:26;3.00;;;1.90;;
45540;SDS011;31265;49.680;8.608;2022-09-12T03:47:54;2.58;;;1.50;;
45540;SDS011;31265;49.680;8.608;2022-09-12T03:50:22;4.68;;;2.50;;
45540;SDS011;31265;49.680;8.608;2022-09-12T03:52:52;4.78;;;2.05;;
45540;SDS011;31265;49.680;8.608;2022-09-12T03:55:20;5.15;;;2.10;;
45540;SDS011;31265;49.680;8.608;2022-09-12T03:57:51;3.90;;;2.05;;
45540;SDS011;31265;49.680;8.608;2022-09-12T04:00:19;4.10;;;1.98;;
45540;SDS011;31265;49.680;8.608;2022-09-12T04:02:47;3.22;;;1.58;;
45540;SDS011;31265;49.680;8.608;2022-09-12T04:05:15;4.80;;;2.10;;
45540;SDS011;31265;49.680;8.608;2022-09-12T04:07:43;4.45;;;1.40;;
45540;SDS011;31265;49.680;8.608;2022-09-12T04:10:12;4.20;;;1.73;;
45540;SDS011;31265;49.680;8.608;2022-09-12T04:12:43;3.72;;;2.10;;
45540;SDS011;31265;49.680;8.608;2022-09-12T04:15:12;3.72;;;2.03;;
45540;SDS011;31265;49.680;8.608;2022-09-12T04:17:40;3.58;;;1.77;;
45540;SDS011;31265;49.680;8.608;2022-09-12T04:20:08;3.25;;;1.85;;
45540;SDS011;31265;49.680;8.608;2022-09-12T04:22:36;3.50;;;1.85;;
45540;SDS011;31265;49.680;8.608;2022-09-12T04:25:04;4.25;;;2.10;;
45540;SDS011;31265;49.680;8.608;2022-09-12T04:27:35;5.05;;;2.67;;
45540;SDS011;31265;49.680;8.608;2022-09-12T04:30:03;4.32;;;1.92;;
45540;SDS011;31265;49.680;8.608;2022-09-12T04:32:31;4.93;;;2.05;;
45540;SDS011;31265;49.680;8.608;2022-09-12T04:34:59;3.85;;;1.48;;
45540;SDS011;31265;49.680;8.608;2022-09-12T04:37:27;4.15;;;2.08;;
45540;SDS011;31265;49.680;8.608;2022-09-12T04:39:55;3.85;;;2.15;;
45540;SDS011;31265;49.680;8.608;2022-09-12T04:42:24;3.40;;;1.70;;
45540;SDS011;31265;49.680;8.608;2022-09-12T04:44:54;4.35;;;1.80;;
45540;SDS011;31265;49.680;8.608;2022-09-12T04:47:22;3.20;;;1.48;;
45540;SDS011;31265;49.680;8.608;2022-09-12T04:49:50;6.57;;;2.47;;
45540;SDS011;31265;49.680;8.608;2022-09-12T04:52:18;4.82;;;2.25;;
45540;SDS011;31265;49.680;8.608;2022-09-12T04:54:46;3.28;;;1.95;;
45540;SDS011;31265;49.680;8.608;2022-09-12T04:57:14;5.88;;;2.20;;
45540;SDS011;31265;49.680;8.608;2022-09-12T04:59:42;2.22;;;1.05;;
45540;SDS011;31265;49.680;8.608;2022-09-12T05:02:12;5.22;;;2.20;;
45540;SDS011;31265;49.680;8.608;2022-09-12T05:04:40;3.63;;;1.95;;
45540;SDS011;31265;49.680;8.608;2022-09-12T05:07:07;10.10;;;2.15;;
45540;SDS011;31265;49.680;8.608;2022-09-12T05:09:35;3.25;;;1.45;;
45540;SDS011;31265;49.680;8.608;2022-09-12T05:12:04;7.18;;;1.98;;
45540;SDS011;31265;49.680;8.608;2022-09-12T05:14:33;3.13;;;1.97;;
45540;SDS011;31265;49.680;8.608;2022-09-12T05:17:01;3.28;;;2.03;;
45540;SDS011;31265;49.680;8.608;2022-09-12T05:19:32;4.10;;;1.73;;
45540;SDS011;31265;49.680;8.608;2022-09-12T05:22:00;4.10;;;1.52;;
45540;SDS011;31265;49.680;8.608;2022-09-12T05:26:58;3.95;;;1.88;;
45540;SDS011;31265;49.680;8.608;2022-09-12T05:29:26;4.65;;;2.30;;
45540;SDS011;31265;49.680;8.608;2022-09-12T05:31:54;6.25;;;1.92;;
45540;SDS011;31265;49.680;8.608;2022-09-12T05:34:22;5.78;;;2.45;;
45540;SDS011;31265;49.680;8.608;2022-09-12T05:36:51;3.83;;;2.17;;
45540;SDS011;31265;49.680;8.608;2022-09-12T05:39:19;4.72;;;2.17;;
45540;SDS011;31265;49.680;8.608;2022-09-12T05:41:47;4.93;;;2.45;;
45540;SDS011;31265;49.680;8.608;2022-09-12T05:44:15;5.68;;;2.30;;
45540;SDS011;31265;49.680;8.608;2022-09-12T05:46:43;3.05;;;1.85;;
45540;SDS011;31265;49.680;8.608;2022-09-12T05:49:12;4.18;;;2.42;;
45540;SDS011;31265;49.680;8.608;2022-09-12T05:51:41;10.40;;;2.63;;
45540;SDS011;31265;49.680;8.608;2022-09-12T05:54:12;5.95;;;2.28;;
45540;SDS011;31265;49.680;8.608;2022-09-12T05:56:46;7.40;;;3.13;;
45540;SDS011;31265;49.680;8.608;2022-09-12T05:59:15;6.10;;;3.40;;
45540;SDS011;31265;49.680;8.608;2022-09-12T06:01:45;7.38;;;3.50;;
45540;SDS011;31265;49.680;8.608;2022-09-12T06:04:14;9.18;;;3.47;;
45540;SDS011;31265;49.680;8.608;2022-09-12T06:06:43;4.28;;;2.60;;
45540;SDS011;31265;49.680;8.608;2022-09-12T06:09:14;8.23;;;3.05;;
45540;SDS011;31265;49.680;8.608;2022-09-12T06:11:43;5.22;;;2.50;;
45540;SDS011;31265;49.680;8.608;2022-09-12T06:14:13;5.90;;;2.80;;
45540;SDS011;31265;49.680;8.608;2022-09-12T06:16:42;4.15;;;2.47;;
45540;SDS011;31265;49.680;8.608;2022-09-12T06:19:12;4.53;;;2.13;;
45540;SDS011;31265;49.680;8.608;2022-09-12T06:21:42;5.15;;;2.67;;
45540;SDS011;31265;49.680;8.608;2022-09-12T06:24:11;4.07;;;2.63;;
45540;SDS011;31265;49.680;8.608;2022-09-12T06:26:41;6.40;;;3.30;;
45540;SDS011;31265;49.680;8.608;2022-09-12T06:31:39;4.70;;;2.70;;
45540;SDS011;31265;49.680;8.608;2022-09-12T06:34:08;4.88;;;2.38;;
45540;SDS011;31265;49.680;8.608;2022-09-12T06:36:38;4.43;;;2.55;;
45540;SDS011;31265;49.680;8.608;2022-09-12T06:39:09;4.70;;;2.50;;
45540;SDS011;31265;49.680;8.608;2022-09-12T06:41:38;6.60;;;2.50;;
45540;SDS011;31265;49.680;8.608;2022-09-12T06:44:12;6.57;;;2.92;;
45540;SDS011;31265;49.680;8.608;2022-09-12T06:46:42;7.20;;;3.22;;
45540;SDS011;31265;49.680;8.608;2022-09-12T06:49:10;5.60;;;2.55;;
45540;SDS011;31265;49.680;8.608;2022-09-12T06:51:39;6.22;;;3.45;;
45540;SDS011;31265;49.680;8.608;2022-09-12T06:54:08;4.97;;;2.90;;
45540;SDS011;31265;49.680;8.608;2022-09-12T06:56:39;4.72;;;2.50;;
45540;SDS011;31265;49.680;8.608;2022-09-12T06:59:08;6.45;;;2.90;;
45540;SDS011;31265;49.680;8.608;2022-09-12T07:01:37;4.28;;;2.75;;
45540;SDS011;31265;49.680;8.608;2022-09-12T07:04:06;5.40;;;2.90;;
45540;SDS011;31265;49.680;8.608;2022-09-12T07:06:35;5.55;;;3.08;;
45540;SDS011;31265;49.680;8.608;2022-09-12T07:09:05;4.47;;;2.50;;
45540;SDS011;31265;49.680;8.608;2022-09-12T07:11:35;7.68;;;2.58;;
45540;SDS011;31265;49.680;8.608;2022-09-12T07:14:05;5.50;;;2.72;;
45540;SDS011;31265;49.680;8.608;2022-09-12T07:16:34;5.22;;;2.55;;
45540;SDS011;31265;49.680;8.608;2022-09-12T07:19:05;3.97;;;2.28;;
45540;SDS011;31265;49.680;8.608;2022-09-12T07:21:34;4.65;;;2.83;;
45540;SDS011;31265;49.680;8.608;2022-09-12T07:24:06;4.57;;;2.65;;
45540;SDS011;31265;49.680;8.608;2022-09-12T07:26:36;5.43;;;2.33;;
45540;SDS011;31265;49.680;8.608;2022-09-12T07:31:54;4.68;;;2.47;;
45540;SDS011;31265;49.680;8.608;2022-09-12T07:34:24;5.65;;;2.42;;
45540;SDS011;31265;49.680;8.608;2022-09-12T07:36:52;4.30;;;2.45;;
45540;SDS011;31265;49.680;8.608;2022-09-12T07:39:20;4.95;;;2.33;;
45540;SDS011;31265;49.680;8.608;2022-09-12T07:41:48;4.45;;;2.47;;
45540;SDS011;31265;49.680;8.608;2022-09-12T07:44:16;5.60;;;2.63;;
45540;SDS011;31265;49.680;8.608;2022-09-12T07:46:44;5.50;;;2.80;;
45540;SDS011;31265;49.680;8.608;2022-09-12T07:49:12;6.32;;;2.85;;
45540;SDS011;31265;49.680;8.608;2022-09-12T07:51:41;5.93;;;3.15;;
45540;SDS011;31265;49.680;8.608;2022-09-12T07:54:09;7.18;;;3.10;;
45540;SDS011;31265;49.680;8.608;2022-09-12T07:56:38;5.85;;;2.92;;
45540;SDS011;31265;49.680;8.608;2022-09-12T07:59:06;5.50;;;3.38;;
45540;SDS011;31265;49.680;8.608;2022-09-12T08:01:34;4.70;;;2.40;;
45540;SDS011;31265;49.680;8.608;2022-09-12T08:04:02;5.10;;;2.80;;
45540;SDS011;31265;49.680;8.608;2022-09-12T08:06:31;5.65;;;3.30;;
45540;SDS011;31265;49.680;8.608;2022-09-12T08:09:03;9.52;;;2.92;;
45540;SDS011;31265;49.680;8.608;2022-09-12T08:11:33;5.38;;;3.00;;
45540;SDS011;31265;49.680;8.608;2022-09-12T08:14:01;6.53;;;2.75;;
45540;SDS011;31265;49.680;8.608;2022-09-12T08:16:31;4.55;;;2.58;;
45540;SDS011;31265;49.680;8.608;2022-09-12T08:19:00;5.05;;;3.08;;
45540;SDS011;31265;49.680;8.608;2022-09-12T08:21:30;7.43;;;2.90;;
45540;SDS011;31265;49.680;8.608;2022-09-12T08:23:59;6.88;;;3.58;;
45540;SDS011;31265;49.680;8.608;2022-09-12T08:26:30;5.20;;;2.90;;
45540;SDS011;31265;49.680;8.608;2022-09-12T08:28:59;6.07;;;3.35;;
45540;SDS011;31265;49.680;8.608;2022-09-12T08:31:28;5.88;;;2.90;;
45540;SDS011;31265;49.680;8.608;2022-09-12T08:33:57;5.35;;;2.30;;
45540;SDS011;31265;49.680;8.608;2022-09-12T08:36:26;5.45;;;2.65;;
45540;SDS011;31265;49.680;8.608;2022-09-12T08:38:55;6.35;;;3.67;;
45540;SDS011;31265;49.680;8.608;2022-09-12T08:41:28;5.90;;;2.75;;
45540;SDS011;31265;49.680;8.608;2022-09-12T08:44:17;4.55;;;2.92;;
45540;SDS011;31265;49.680;8.608;2022-09-12T08:47:14;4.53;;;2.70;;
45540;SDS011;31265;49.680;8.608;2022-09-12T08:49:50;4.70;;;2.60;;
45540;SDS011;31265;49.680;8.608;2022-09-12T08:52:25;7.72;;;2.97;;
45540;SDS011;31265;49.680;8.608;2022-09-12T08:54:59;7.97;;;2.97;;
45540;SDS011;31265;49.680;8.608;2022-09-12T08:57:32;4.53;;;2.28;;
45540;SDS011;31265;49.680;8.608;2022-09-12T09:00:03;6.13;;;2.67;;
45540;SDS011;31265;49.680;8.608;2022-09-12T09:02:52;4.97;;;2.95;;
45540;SDS011;31265;49.680;8.608;2022-09-12T09:05:36;6.85;;;3.28;;
45540;SDS011;31265;49.680;8.608;2022-09-12T09:08:15;4.15;;;2.53;;
45540;SDS011;31265;49.680;8.608;2022-09-12T09:10:58;4.65;;;2.60;;
45540;SDS011;31265;49.680;8.608;2022-09-12T09:13:37;6.45;;;2.10;;
45540;SDS011;31265;49.680;8.608;2022-09-12T09:16:37;5.00;;;2.70;;
45540;SDS011;31265;49.680;8.608;2022-09-12T09:19:19;6.88;;;2.35;;
45540;SDS011;31265;49.680;8.608;2022-09-12T09:21:52;4.35;;;2.30;;
45540;SDS011;31265;49.680;8.608;2022-09-12T09:24:25;5.28;;;2.83;;
45540;SDS011;31265;49.680;8.608;2022-09-12T09:27:00;6.32;;;3.35;;
45540;SDS011;31265;49.680;8.608;2022-09-12T09:29:52;4.53;;;2.08;;
45540;SDS011;31265;49.680;8.608;2022-09-12T09:32:26;6.38;;;2.70;;
45540;SDS011;31265;49.680;8.608;2022-09-12T09:34:57;4.90;;;2.65;;
45540;SDS011;31265;49.680;8.608;2022-09-12T09:37:27;5.93;;;2.40;;
45540;SDS011;31265;49.680;8.608;2022-09-12T09:40:04;4.50;;;2.08;;
45540;SDS011;31265;49.680;8.608;2022-09-12T09:42:43;4.13;;;2.17;;
45540;SDS011;31265;49.680;8.608;2022-09-12T09:45:19;5.88;;;2.33;;
45540;SDS011;31265;49.680;8.608;2022-09-12T09:47:52;4.85;;;2.42;;
45540;SDS011;31265;49.680;8.608;2022-09-12T09:50:24;4.05;;;2.20;;
45540;SDS011;31265;49.680;8.608;2022-09-12T09:52:53;3.65;;;2.25;;
45540;SDS011;31265;49.680;8.608;2022-09-12T09:55:27;5.32;;;1.92;;
45540;SDS011;31265;49.680;8.608;2022-09-12T09:57:59;4.25;;;2.13;;
45540;SDS011;31265;49.680;8.608;2022-09-12T10:00:28;3.28;;;1.70;;
45540;SDS011;31265;49.680;8.608;2022-09-12T10:03:04;4.57;;;2.70;;
45540;SDS011;31265;49.680;8.608;2022-09-12T10:05:49;3.42;;;2.03;;
45540;SDS011;31265;49.680;8.608;2022-09-12T10:08:19;4.88;;;2.30;;
45540;SDS011;31265;49.680;8.608;2022-09-12T10:10:53;3.92;;;2.20;;
45540;SDS011;31265;49.680;8.608;2022-09-12T10:13:24;3.38;;;1.73;;
45540;SDS011;31265;49.680;8.608;2022-09-12T10:15:57;3.30;;;1.55;;
45540;SDS011;31265;49.680;8.608;2022-09-12T10:18:39;3.70;;;1.92;;
45540;SDS011;31265;49.680;8.608;2022-09-12T10:21:13;2.60;;;1.45;;
45540;SDS011;31265;49.680;8.608;2022-09-12T10:23:44;3.10;;;1.73;;
45540;SDS011;31265;49.680;8.608;2022-09-12T10:26:15;3.65;;;1.65;;
45540;SDS011;31265;49.680;8.608;2022-09-12T10:28:48;3.40;;;1.98;;
45540;SDS011;31265;49.680;8.608;2022-09-12T10:31:25;4.20;;;2.05;;
45540;SDS011;31265;49.680;8.608;2022-09-12T10:33:57;3.28;;;2.00;;
45540;SDS011;31265;49.680;8.608;2022-09-12T10:36:33;3.17;;;1.63;;
45540;SDS011;31265;49.680;8.608;2022-09-12T10:39:04;4.20;;;2.10;;
45540;SDS011;31265;49.680;8.608;2022-09-12T10:44:06;5.55;;;2.70;;
45540;SDS011;31265;49.680;8.608;2022-09-12T10:46:39;3.05;;;1.58;;
45540;SDS011;31265;49.680;8.608;2022-09-12T10:49:25;3.92;;;2.10;;
45540;SDS011;31265;49.680;8.608;2022-09-12T10:51:56;4.90;;;1.95;;
45540;SDS011;31265;49.680;8.608;2022-09-12T10:54:42;2.80;;;1.48;;
45540;SDS011;31265;49.680;8.608;2022-09-12T10:57:18;3.35;;;1.55;;
45540;SDS011;31265;49.680;8.608;2022-09-12T11:00:02;2.97;;;1.73;;
45540;SDS011;31265;49.680;8.608;2022-09-12T11:02:43;3.35;;;1.48;;
45540;SDS011;31265;49.680;8.608;2022-09-12T11:05:24;2.17;;;1.38;;
45540;SDS011;31265;49.680;8.608;2022-09-12T11:08:06;2.40;;;1.60;;
45540;SDS011;31265;49.680;8.608;2022-09-12T11:10:44;3.25;;;1.70;;
45540;SDS011;31265;49.680;8.608;2022-09-12T11:13:29;2.60;;;1.35;;
45540;SDS011;31265;49.680;8.608;2022-09-12T11:16:16;2.95;;;1.55;;
45540;SDS011;31265;49.680;8.608;2022-09-12T11:18:56;2.55;;;1.58;;
45540;SDS011;31265;49.680;8.608;2022-09-12T11:21:42;6.53;;;2.00;;
45540;SDS011;31265;49.680;8.608;2022-09-12T11:24:23;2.90;;;1.65;;
45540;SDS011;31265;49.680;8.608;2022-09-12T11:27:11;4.18;;;1.45;;
45540;SDS011;31265;49.680;8.608;2022-09-12T11:29:57;2.47;;;1.60;;
45540;SDS011;31265;49.680;8.608;2022-09-12T11:32:38;3.00;;;1.60;;
45540;SDS011;31265;49.680;8.608;2022-09-12T11:35:18;3.22;;;1.90;;
45540;SDS011;31265;49.680;8.608;2022-09-12T11:38:01;2.83;;;1.60;;
45540;SDS011;31265;49.680;8.608;2022-09-12T11:40:41;3.22;;;1.60;;
45540;SDS011;31265;49.680;8.608;2022-09-12T11:43:17;2.97;;;1.70;;
45540;SDS011;31265;49.680;8.608;2022-09-12T11:45:52;2.70;;;1.55;;
45540;SDS011;31265;49.680;8.608;2022-09-12T11:48:25;2.92;;;1.60;;
45540;SDS011;31265;49.680;8.608;2022-09-12T11:51:01;4.43;;;1.80;;
45540;SDS011;31265;49.680;8.608;2022-09-12T11:53:37;2.90;;;1.50;;
45540;SDS011;31265;49.680;8.608;2022-09-12T11:56:09;3.13;;;1.58;;
45540;SDS011;31265;49.680;8.608;2022-09-12T11:58:42;3.67;;;1.85;;
45540;SDS011;31265;49.680;8.608;2022-09-12T12:01:14;2.33;;;1.08;;
45540;SDS011;31265;49.680;8.608;2022-09-12T12:03:47;2.53;;;1.38;;
45540;SDS011;31265;49.680;8.608;2022-09-12T12:06:19;2.28;;;1.30;;
45540;SDS011;31265;49.680;8.608;2022-09-12T12:08:52;2.47;;;1.45;;
45540;SDS011;31265;49.680;8.608;2022-09-12T12:11:25;2.90;;;1.55;;
45540;SDS011;31265;49.680;8.608;2022-09-12T12:13:58;3.08;;;1.52;;
45540;SDS011;31265;49.680;8.608;2022-09-12T12:16:29;3.58;;;1.85;;
45540;SDS011;31265;49.680;8.608;2022-09-12T12:19:00;3.65;;;1.63;;
45540;SDS011;31265;49.680;8.608;2022-09-12T12:21:39;4.35;;;2.22;;
45540;SDS011;31265;49.680;8.608;2022-09-12T12:24:16;3.55;;;1.90;;
45540;SDS011;31265;49.680;8.608;2022-09-12T12:26:56;2.28;;;1.35;;
45540;SDS011;31265;49.680;8.608;2022-09-12T12:29:36;3.38;;;1.85;;
45540;SDS011;31265;49.680;8.608;2022-09-12T12:32:20;2.28;;;1.15;;
45540;SDS011;31265;49.680;8.608;2022-09-12T12:34:49;2.67;;;1.30;;
45540;SDS011;31265;49.680;8.608;2022-09-12T12:40:24;2.60;;;1.20;;
45540;SDS011;31265;49.680;8.608;2022-09-12T12:43:04;2.67;;;1.20;;
45540;SDS011;31265;49.680;8.608;2022-09-12T12:45:58;2.80;;;1.52;;
45540;SDS011;31265;49.680;8.608;2022-09-12T12:48:31;3.85;;;1.50;;
45540;SDS011;31265;49.680;8.608;2022-09-12T12:51:15;2.67;;;1.42;;
45540;SDS011;31265;49.680;8.608;2022-09-12T12:53:52;2.70;;;1.45;;
45540;SDS011;31265;49.680;8.608;2022-09-12T12:56:31;2.42;;;1.30;;
45540;SDS011;31265;49.680;8.608;2022-09-12T12:59:12;4.22;;;1.58;;
45540;SDS011;31265;49.680;8.608;2022-09-12T13:01:45;2.80;;;1.67;;
45540;SDS011;31265;49.680;8.608;2022-09-12T13:04:21;3.63;;;1.85;;
45540;SDS011;31265;49.680;8.608;2022-09-12T13:06:56;3.17;;;1.40;;
45540;SDS011;31265;49.680;8.608;2022-09-12T13:09:35;2.42;;;1.10;;
45540;SDS011;31265;49.680;8.608;2022-09-12T13:12:08;2.83;;;1.27;;
45540;SDS011;31265;49.680;8.608;2022-09-12T13:14:49;2.35;;;1.23;;
45540;SDS011;31265;49.680;8.608;2022-09-12T13:17:23;3.22;;;1.50;;
45540;SDS011;31265;49.680;8.608;2022-09-12T13:20:01;2.67;;;1.40;;
45540;SDS011;31265;49.680;8.608;2022-09-12T13:22:54;2.30;;;1.23;;
45540;SDS011;31265;49.680;8.608;2022-09-12T13:25:25;2.05;;;1.10;;
45540;SDS011;31265;49.680;8.608;2022-09-12T13:28:01;2.10;;;1.17;;
45540;SDS011;31265;49.680;8.608;2022-09-12T13:30:32;3.20;;;1.10;;
45540;SDS011;31265;49.680;8.608;2022-09-12T13:33:04;1.65;;;1.02;;
45540;SDS011;31265;49.680;8.608;2022-09-12T13:35:39;2.28;;;1.10;;
45540;SDS011;31265;49.680;8.608;2022-09-12T13:38:17;2.78;;;1.45;;
45540;SDS011;31265;49.680;8.608;2022-09-12T13:43:34;1.35;;;0.68;;
45540;SDS011;31265;49.680;8.608;2022-09-12T13:46:07;1.73;;;0.80;;
45540;SDS011;31265;49.680;8.608;2022-09-12T13:48:36;2.25;;;0.90;;
45540;SDS011;31265;49.680;8.608;2022-09-12T13:51:06;2.63;;;0.90;;
45540;SDS011;31265;49.680;8.608;2022-09-12T13:53:35;2.33;;;0.93;;
45540;SDS011;31265;49.680;8.608;2022-09-12T13:56:14;1.35;;;0.70;;
45540;SDS011;31265;49.680;8.608;2022-09-12T13:58:51;2.17;;;0.80;;
45540;SDS011;31265;49.680;8.608;2022-09-12T14:01:22;2.42;;;0.85;;
45540;SDS011;31265;49.680;8.608;2022-09-12T14:03:52;1.70;;;0.90;;
45540;SDS011;31265;49.680;8.608;2022-09-12T14:06:41;2.10;;;0.80;;
45540;SDS011;31265;49.680;8.608;2022-09-12T14:09:15;1.73;;;0.93;;
45540;SDS011;31265;49.680;8.608;2022-09-12T14:11:51;2.40;;;0.98;;
45540;SDS011;31265;49.680;8.608;2022-09-12T14:14:23;2.38;;;1.00;;
45540;SDS011;31265;49.680;8.608;2022-09-12T14:16:57;1.33;;;0.80;;
45540;SDS011;31265;49.680;8.608;2022-09-12T14:19:26;2.43;;;1.00;;
45540;SDS011;31265;49.680;8.608;2022-09-12T14:21:55;3.00;;;1.17;;
45540;SDS011;31265;49.680;8.608;2022-09-12T14:24:23;1.02;;;0.68;;
45540;SDS011;31265;49.680;8.608;2022-09-12T14:26:52;2.03;;;0.98;;
45540;SDS011;31265;49.680;8.608;2022-09-12T14:29:24;2.15;;;0.80;;
45540;SDS011;31265;49.680;8.608;2022-09-12T14:32:00;1.67;;;0.80;;
45540;SDS011;31265;49.680;8.608;2022-09-12T14:34:29;1.55;;;0.77;;
45540;SDS011;31265;49.680;8.608;2022-09-12T14:36:57;1.58;;;0.80;;
45540;SDS011;31265;49.680;8.608;2022-09-12T14:39:27;1.95;;;0.88;;
45540;SDS011;31265;49.680;8.608;2022-09-12T14:41:59;1.65;;;0.90;;
45540;SDS011;31265;49.680;8.608;2022-09-12T14:44:32;1.58;;;0.68;;
45540;SDS011;31265;49.680;8.608;2022-09-12T14:47:09;1.30;;;0.70;;
45540;SDS011;31265;49.680;8.608;2022-09-12T14:49:40;1.60;;;0.60;;
45540;SDS011;31265;49.680;8.608;2022-09-12T14:52:19;2.30;;;0.80;;
45540;SDS011;31265;49.680;8.608;2022-09-12T14:54:55;1.60;;;0.77;;
45540;SDS011;31265;49.680;8.608;2022-09-12T14:57:35;0.82;;;0.50;;
45540;SDS011;31265;49.680;8.608;2022-09-12T15:00:18;1.58;;;0.50;;
45540;SDS011;31265;49.680;8.608;2022-09-12T15:02:49;2.10;;;0.80;;
45540;SDS011;31265;49.680;8.608;2022-09-12T15:05:23;1.38;;;0.65;;
45540;SDS011;31265;49.680;8.608;2022-09-12T15:07:57;1.15;;;0.47;;
45540;SDS011;31265;49.680;8.608;2022-09-12T15:10:27;3.28;;;0.82;;
45540;SDS011;31265;49.680;8.608;2022-09-12T15:13:11;1.13;;;0.60;;
45540;SDS011;31265;49.680;8.608;2022-09-12T15:15:42;1.20;;;0.57;;
45540;SDS011;31265;49.680;8.608;2022-09-12T15:18:11;0.85;;;0.50;;
45540;SDS011;31265;49.680;8.608;2022-09-12T15:20:41;0.82;;;0.50;;
45540;SDS011;31265;49.680;8.608;2022-09-12T15:23:13;1.25;;;0.35;;
45540;SDS011;31265;49.680;8.608;2022-09-12T15:25:44;1.83;;;0.88;;
45540;SDS011;31265;49.680;8.608;2022-09-12T15:28:15;1.33;;;0.60;;
45540;SDS011;31265;49.680;8.608;2022-09-12T15:30:47;1.67;;;0.90;;
45540;SDS011;31265;49.680;8.608;2022-09-12T15:33:17;1.20;;;0.55;;
45540;SDS011;31265;49.680;8.608;2022-09-12T15:35:46;0.98;;;0.50;;
45540;SDS011;31265;49.680;8.608;2022-09-12T15:38:14;0.90;;;0.60;;
45540;SDS011;31265;49.680;8.608;2022-09-12T15:40:42;4.00;;;0.57;;
45540;SDS011;31265;49.680;8.608;2022-09-12T15:43:12;1.70;;;0.60;;
45540;SDS011;31265;49.680;8.608;2022-09-12T15:45:40;1.20;;;0.68;;
45540;SDS011;31265;49.680;8.608;2022-09-12T15:48:10;1.23;;;0.60;;